createdAt,value
2023-01-28T00:01:42.211Z,101026.29
2023-01-28T00:06:46.409Z,101026.17
2023-01-28T00:11:50.240Z,101024.09
2023-01-28T00:16:54.155Z,101023.76
2023-01-28T00:21:57.997Z,101024.80
2023-01-28T00:27:01.812Z,101022.21
2023-01-28T00:32:05.847Z,101018.08
2023-01-28T00:37:10.098Z,101017.70
2023-01-28T00:42:13.830Z,101016.67
2023-01-28T00:47:17.692Z,101016.02
2023-01-28T00:52:22.917Z,101006.26
2023-01-28T00:57:26.932Z,100998.89
2023-01-28T01:02:32.578Z,101000.56
2023-01-28T01:07:42.333Z,101000.04
2023-01-28T01:12:48.044Z,101005.16
2023-01-28T01:17:52.099Z,101013.84
2023-01-28T01:22:57.030Z,101019.80
2023-01-28T01:28:01.882Z,101019.11
2023-01-28T01:33:05.690Z,101031.14
2023-01-28T01:38:09.513Z,101033.58
2023-01-28T01:43:18.602Z,101044.30
2023-01-28T01:48:34.490Z,101051.31
2023-01-28T01:53:42.082Z,101051.88
2023-01-28T01:58:49.377Z,101054.84
2023-01-28T02:04:10.022Z,101057.30
2023-01-28T02:09:30.266Z,101057.17
2023-01-28T02:14:37.490Z,101049.82
2023-01-28T02:19:53.437Z,101055.58
2023-01-28T02:25:21.849Z,101055.63
2023-01-28T02:30:30.677Z,101062.20
2023-01-28T02:35:47.721Z,101056.31
2023-01-28T02:41:07.452Z,101059.58
2023-01-28T02:46:52.016Z,101062.14
2023-01-28T02:52:46.145Z,101065.56
2023-01-28T02:58:00.891Z,101065.61
2023-01-28T03:03:17.941Z,101060.88
2023-01-28T03:08:40.938Z,101069.10
2023-01-28T03:14:04.299Z,101069.27
2023-01-28T03:19:28.151Z,101070.14
2023-01-28T03:24:52.990Z,101068.26
2023-01-28T03:30:19.397Z,101068.83
2023-01-28T03:35:42.959Z,101069.50
2023-01-28T03:41:12.196Z,101074.22
2023-01-28T03:46:16.451Z,101071.94
2023-01-28T03:51:21.011Z,101072.86
2023-01-28T03:56:27.237Z,101079.67
2023-01-28T04:01:31.597Z,101072.17
2023-01-28T04:06:37.369Z,101077.27
2023-01-28T04:12:04.650Z,101077.05
2023-01-28T04:17:13.267Z,101081.38
2023-01-28T04:22:18.030Z,101084.95
2023-01-28T04:27:22.877Z,101087.27
2023-01-28T04:32:28.430Z,101084.92
2023-01-28T04:37:58.535Z,101093.33
2023-01-28T04:43:21.089Z,101097.39
2023-01-28T04:48:45.112Z,101098.42
2023-01-28T04:54:07.851Z,101103.61
2023-01-28T04:59:13.339Z,101115.47
2023-01-28T05:04:17.709Z,101113.16
2023-01-28T05:09:21.690Z,101116.65
2023-01-28T05:14:28.918Z,101118.23
2023-01-28T05:19:44.175Z,101126.02
2023-01-28T05:24:55.836Z,101133.42
2023-01-28T05:30:00.808Z,101139.40
2023-01-28T05:35:05.107Z,101140.46
2023-01-28T05:40:10.391Z,101147.91
2023-01-28T05:45:14.888Z,101147.94
2023-01-28T05:50:42.265Z,101149.66
2023-01-28T05:55:54.274Z,101148.45
2023-01-28T06:01:00.442Z,101145.91
2023-01-28T06:06:08.570Z,101140.98
2023-01-28T06:11:13.130Z,101154.02
2023-01-28T06:16:17.944Z,101154.58
2023-01-28T06:21:35.498Z,101166.02
2023-01-28T06:26:40.231Z,101161.91
2023-01-28T06:31:44.069Z,101163.64
2023-01-28T06:36:48.529Z,101171.66
2023-01-28T06:41:52.349Z,101174.23
2023-01-28T06:46:56.157Z,101176.83
2023-01-28T06:52:00.114Z,101185.89
2023-01-28T06:57:03.830Z,101192.23
2023-01-28T07:02:11.692Z,101194.98
2023-01-28T07:07:15.433Z,101202.67
2023-01-28T07:12:19.136Z,101208.66
2023-01-28T07:17:22.960Z,101219.56
2023-01-28T07:22:26.772Z,101218.77
2023-01-28T07:27:30.513Z,101225.76
2023-01-28T07:32:34.369Z,101230.92
2023-01-28T07:37:39.094Z,101232.17
2023-01-28T07:42:42.909Z,101232.28
2023-01-28T07:48:02.877Z,101232.43
2023-01-28T07:53:08.718Z,101226.55
2023-01-28T07:58:13.475Z,101227.54
2023-01-28T08:03:19.919Z,101228.40
2023-01-28T08:08:25.422Z,101235.70
2023-01-28T08:13:30.189Z,101239.81
2023-01-28T08:18:33.949Z,101244.38
2023-01-28T08:23:37.690Z,101247.90
2023-01-28T08:28:44.653Z,101251.46
2023-01-28T08:34:26.314Z,101252.96
2023-01-28T08:39:38.110Z,101250.88
2023-01-28T08:44:42.389Z,101256.81
2023-01-28T08:49:49.848Z,101254.89
2023-01-28T08:54:53.686Z,101257.96
2023-01-28T08:59:57.654Z,101262.95
2023-01-28T09:05:01.500Z,101263.68
2023-01-28T09:10:06.561Z,101259.56
2023-01-28T09:15:13.233Z,101255.10
2023-01-28T09:20:17.865Z,101257.52
2023-01-28T09:25:22.174Z,101273.29
2023-01-28T09:30:32.201Z,101276.30
2023-01-28T09:35:37.121Z,101282.80
2023-01-28T09:40:43.716Z,101287.13
2023-01-28T09:45:51.246Z,101286.63
2023-01-28T09:50:55.475Z,101287.57
2023-01-28T09:56:05.312Z,101288.81
2023-01-28T10:01:12.070Z,101290.88
2023-01-28T10:06:51.335Z,101285.11
2023-01-28T10:12:39.962Z,101284.89
2023-01-28T10:18:15.710Z,101285.64
2023-01-28T10:24:02.522Z,101286.91
2023-01-28T10:29:18.760Z,101278.55
2023-01-28T10:40:27.117Z,101277.95
2023-01-28T10:45:37.040Z,101282.52
2023-01-28T10:50:57.203Z,101285.80
2023-01-28T10:56:12.192Z,101285.83
2023-01-28T11:01:16.127Z,101287.05
2023-01-28T11:06:31.032Z,101290.02
2023-01-28T11:11:34.931Z,101288.81
2023-01-28T11:16:41.657Z,101289.83
2023-01-28T11:21:51.368Z,101293.30
2023-01-28T11:27:18.458Z,101279.76
2023-01-28T11:32:36.446Z,101278.23
2023-01-28T11:38:13.643Z,101279.59
2023-01-28T11:43:26.525Z,101284.45
2023-01-28T11:48:47.813Z,101288.23
2023-01-28T11:54:16.652Z,101288.40
2023-01-28T12:00:12.448Z,101294.48
2023-01-28T12:05:30.302Z,101290.39
2023-01-28T12:11:19.087Z,101282.13
2023-01-28T12:16:32.095Z,101274.63
2023-01-28T12:21:54.181Z,101276.09
2023-01-28T12:33:33.355Z,101272.83
2023-01-28T12:38:57.882Z,101269.63
2023-01-28T12:44:07.883Z,101266.84
2023-01-28T12:49:22.037Z,101269.45
2023-01-28T12:54:57.521Z,101281.13
2023-01-28T13:00:42.603Z,101277.71
2023-01-28T13:05:52.380Z,101280.25
2023-01-28T13:10:59.535Z,101283.91
2023-01-28T13:16:05.077Z,101275.89
2023-01-28T13:21:16.240Z,101285.59
2023-01-28T13:26:49.590Z,101292.26
2023-01-28T13:31:57.023Z,101283.23
2023-01-28T13:37:29.668Z,101290.75
2023-01-28T13:42:36.455Z,101290.54
2023-01-28T13:47:43.529Z,101300.58
2023-01-28T13:53:04.749Z,101296.96
2023-01-28T13:58:32.452Z,101295.31
2023-01-28T14:04:15.448Z,101305.38
2023-01-28T14:09:56.647Z,101307.23
2023-01-28T14:15:46.271Z,101313.90
2023-01-28T14:20:56.563Z,101317.14
2023-01-28T14:26:39.590Z,101323.10
2023-01-28T14:31:46.571Z,101326.37
2023-01-28T14:36:51.037Z,101326.29
2023-01-28T14:41:57.067Z,101334.52
2023-01-28T14:47:31.284Z,101335.13
2023-01-28T14:53:14.393Z,101333.31
2023-01-28T14:58:23.547Z,101338.80
2023-01-28T15:03:29.193Z,101338.17
2023-01-28T15:08:34.111Z,101341.44
2023-01-28T15:13:45.867Z,101350.04
2023-01-28T15:18:51.442Z,101349.24
2023-01-28T15:23:59.712Z,101346.22
2023-01-28T15:29:03.946Z,101347.50
2023-01-28T15:34:19.901Z,101354.23
2023-01-28T15:39:25.783Z,101363.32
2023-01-28T15:44:35.612Z,101363.55
2023-01-28T15:49:58.699Z,101368.88
2023-01-28T15:55:43.026Z,101364.50
2023-01-28T16:00:49.655Z,101377.70
2023-01-28T16:06:03.013Z,101376.51
2023-01-28T16:11:10.632Z,101376.89
2023-01-28T16:16:16.235Z,101374.70
2023-01-28T16:21:25.031Z,101373.88
2023-01-28T16:26:35.064Z,101372.73
2023-01-28T16:31:42.296Z,101372.23
2023-01-28T16:36:52.064Z,101378.91
2023-01-28T16:41:58.171Z,101387.61
2023-01-28T16:47:05.892Z,101385.07
2023-01-28T16:52:14.927Z,101382.52
2023-01-28T16:57:22.993Z,101378.77
2023-01-28T17:02:31.253Z,101377.28
2023-01-28T17:07:44.457Z,101382.39
2023-01-28T17:12:49.654Z,101375.05
2023-01-28T17:17:56.439Z,101384.14
2023-01-28T17:23:00.735Z,101386.59
2023-01-28T17:28:07.176Z,101389.92
2023-01-28T17:33:13.655Z,101389.98
2023-01-28T17:38:20.143Z,101403.45
2023-01-28T17:43:25.574Z,101405.15
2023-01-28T17:48:29.925Z,101412.11
2023-01-28T17:53:43.585Z,101410.91
2023-01-28T17:58:53.017Z,101408.23
2023-01-28T18:03:58.571Z,101419.29
2023-01-28T18:09:05.510Z,101433.05
2023-01-28T18:14:10.053Z,101441.85
2023-01-28T18:19:14.543Z,101434.68
2023-01-28T18:24:19.154Z,101442.84
2023-01-28T18:29:24.833Z,101440.56
2023-01-28T18:34:32.383Z,101446.36
2023-01-28T18:39:38.420Z,101445.48
2023-01-28T18:44:44.973Z,101453.66
2023-01-28T18:49:49.133Z,101457.92
2023-01-28T18:54:53.525Z,101463.52
2023-01-28T18:59:58.706Z,101462.66
2023-01-28T19:05:30.747Z,101460.63
2023-01-28T19:10:43.015Z,101466.21
2023-01-28T19:15:53.767Z,101472.68
2023-01-28T19:21:06.441Z,101470.77
2023-01-28T19:26:34.156Z,101468.02
2023-01-28T19:32:04.988Z,101461.20
2023-01-28T19:37:23.439Z,101472.75
2023-01-28T19:42:37.206Z,101472.90
2023-01-28T19:47:43.071Z,101462.34
2023-01-28T19:52:51.616Z,101462.66
2023-01-28T19:58:04.989Z,101459.58
2023-01-28T20:03:36.516Z,101468.09
2023-01-28T20:09:57.334Z,101470.48
2023-01-28T20:15:28.556Z,101471.51
2023-01-28T20:20:51.955Z,101472.50
2023-01-28T20:26:05.415Z,101484.05
2023-01-28T20:31:14.998Z,101485.04
2023-01-28T20:36:44.328Z,101485.21
2023-01-28T20:41:57.358Z,101483.48
2023-01-28T20:47:04.584Z,101479.36
2023-01-28T20:52:13.183Z,101474.89
2023-01-28T20:57:26.544Z,101475.86
2023-01-28T21:02:31.782Z,101480.27
2023-01-28T21:07:35.802Z,101472.39
2023-01-28T21:12:44.241Z,101472.44
2023-01-28T21:17:54.734Z,101488.45
2023-01-28T21:23:03.766Z,101490.98
2023-01-28T21:28:12.665Z,101489.29
2023-01-28T21:33:21.829Z,101492.33
2023-01-28T21:38:26.875Z,101496.39
2023-01-28T21:43:42.076Z,101494.48
2023-01-28T21:48:50.339Z,101498.90
2023-01-28T21:53:57.564Z,101492.45
2023-01-28T21:59:24.344Z,101484.15
2023-01-28T22:04:35.766Z,101477.55
2023-01-28T22:09:40.760Z,101459.33
2023-01-28T22:14:48.122Z,101454.59
2023-01-28T22:19:53.084Z,101456.33
2023-01-28T22:24:57.142Z,101461.77
2023-01-28T22:30:31.136Z,101463.77
2023-01-28T22:35:57.874Z,101457.41
2023-01-28T22:54:09.466Z,101453.44
2023-01-28T23:00:36.305Z,101453.25
2023-01-28T23:06:48.008Z,101452.89
2023-01-28T23:12:54.610Z,101460.55
2023-01-28T23:19:02.459Z,101459.38
2023-01-28T23:24:58.636Z,101455.63
2023-01-28T23:31:14.935Z,101456.87
2023-01-28T23:36:49.048Z,101461.05
2023-01-28T23:43:17.903Z,101457.08
2023-01-28T23:49:23.176Z,101458.08
2023-01-28T23:55:48.995Z,101457.38
